createdAt,value
2022-09-22T00:01:38.398Z,7.30
2022-09-22T00:04:08.884Z,7.70
2022-09-22T00:06:47.690Z,9.10
2022-09-22T00:09:18.418Z,12.20
2022-09-22T00:11:49.866Z,12.60
2022-09-22T00:14:23.962Z,14.80
2022-09-22T00:17:01.286Z,13.40
2022-09-22T00:19:32.575Z,11.20
2022-09-22T00:22:00.852Z,12.20
2022-09-22T00:24:29.558Z,11.00
2022-09-22T00:26:59.629Z,11.30
2022-09-22T00:29:29.612Z,10.00
2022-09-22T00:32:00.273Z,11.40
2022-09-22T00:34:30.420Z,12.40
2022-09-22T00:36:58.273Z,12.20
2022-09-22T00:39:27.630Z,12.50
2022-09-22T00:41:55.440Z,11.80
2022-09-22T00:44:44.979Z,12.20
2022-09-22T00:47:37.422Z,12.90
2022-09-22T00:50:24.909Z,12.40
2022-09-22T00:52:56.072Z,12.50
2022-09-22T00:55:52.116Z,11.20
2022-09-22T00:58:26.974Z,12.10
2022-09-22T01:00:55.203Z,12.90
2022-09-22T01:03:29.586Z,12.60
2022-09-22T01:06:01.901Z,11.30
2022-09-22T01:08:31.714Z,11.20
2022-09-22T01:11:00.429Z,12.20
2022-09-22T01:13:35.480Z,11.00
2022-09-22T01:16:06.214Z,11.10
2022-09-22T01:19:16.124Z,10.40
2022-09-22T01:21:59.369Z,9.10
2022-09-22T01:24:54.173Z,9.70
2022-09-22T01:28:00.591Z,11.00
2022-09-22T01:31:00.740Z,10.60
2022-09-22T01:33:28.659Z,9.70
2022-09-22T01:36:19.289Z,9.80
2022-09-22T01:39:12.348Z,10.70
2022-09-22T01:41:48.978Z,9.50
2022-09-22T01:44:25.432Z,11.50
2022-09-22T01:47:00.491Z,15.00
2022-09-22T01:49:32.870Z,13.40
2022-09-22T01:52:08.824Z,8.60
2022-09-22T01:54:42.297Z,7.60
2022-09-22T01:57:18.216Z,7.40
2022-09-22T01:59:55.127Z,6.90
2022-09-22T02:02:33.887Z,7.00
2022-09-22T02:05:06.373Z,6.40
2022-09-22T02:07:39.636Z,11.00
2022-09-22T02:10:11.682Z,11.10
2022-09-22T02:12:39.720Z,9.50
2022-09-22T02:15:29.390Z,8.10
2022-09-22T02:18:03.062Z,8.50
2022-09-22T02:20:31.034Z,9.50
2022-09-22T02:22:59.090Z,8.60
2022-09-22T02:25:29.162Z,8.90
2022-09-22T02:27:58.253Z,8.90
2022-09-22T02:30:27.610Z,8.00
2022-09-22T02:32:58.818Z,8.20
2022-09-22T02:35:30.030Z,8.30
2022-09-22T02:38:00.772Z,8.70
2022-09-22T02:40:33.310Z,8.10
2022-09-22T02:43:09.345Z,8.80
2022-09-22T02:45:51.214Z,8.00
2022-09-22T02:48:24.700Z,7.70
2022-09-22T02:50:54.468Z,7.00
2022-09-22T02:53:22.644Z,7.20
2022-09-22T02:55:51.035Z,7.40
2022-09-22T02:58:18.934Z,7.80
2022-09-22T03:00:47.211Z,7.60
2022-09-22T03:03:15.187Z,8.00
2022-09-22T03:05:43.088Z,7.60
2022-09-22T03:08:10.950Z,7.40
2022-09-22T03:10:38.885Z,7.50
2022-09-22T03:13:16.458Z,5.70
2022-09-22T03:15:46.523Z,5.30
2022-09-22T03:18:14.924Z,7.50
2022-09-22T03:20:43.056Z,6.30
2022-09-22T03:23:10.938Z,6.70
2022-09-22T03:25:38.822Z,6.80
2022-09-22T03:28:06.599Z,7.10
2022-09-22T03:30:36.350Z,6.90
2022-09-22T03:33:04.283Z,6.70
2022-09-22T03:35:32.425Z,7.30
2022-09-22T03:38:00.239Z,9.10
2022-09-22T03:40:28.326Z,8.20
2022-09-22T03:42:56.286Z,10.00
2022-09-22T03:45:24.633Z,7.20
2022-09-22T03:47:54.461Z,6.60
2022-09-22T03:50:22.600Z,7.00
2022-09-22T03:52:50.458Z,6.30
2022-09-22T03:55:18.527Z,7.10
2022-09-22T03:57:46.960Z,6.90
2022-09-22T04:00:15.725Z,9.00
2022-09-22T04:02:44.038Z,8.10
2022-09-22T04:05:11.988Z,8.70
2022-09-22T04:07:39.932Z,7.00
2022-09-22T04:10:08.516Z,8.70
2022-09-22T04:12:37.426Z,7.80
2022-09-22T04:15:06.374Z,7.60
2022-09-22T04:17:34.612Z,7.90
2022-09-22T04:20:03.460Z,7.30
2022-09-22T04:22:31.433Z,8.10
2022-09-22T04:24:59.258Z,10.50
2022-09-22T04:27:27.134Z,9.60
2022-09-22T04:29:55.011Z,9.90
2022-09-22T04:32:23.524Z,8.40
2022-09-22T04:34:51.429Z,7.20
2022-09-22T04:37:19.388Z,7.30
2022-09-22T04:39:47.169Z,6.20
2022-09-22T04:42:15.315Z,5.90
2022-09-22T04:44:43.490Z,6.70
2022-09-22T04:47:11.320Z,6.50
2022-09-22T04:49:39.423Z,6.40
2022-09-22T04:52:07.938Z,6.60
2022-09-22T04:54:36.320Z,6.00
2022-09-22T04:57:04.337Z,7.20
2022-09-22T04:59:32.422Z,7.00
2022-09-22T05:02:00.339Z,6.40
2022-09-22T05:04:28.813Z,7.60
2022-09-22T05:06:56.629Z,6.90
2022-09-22T05:09:24.925Z,7.10
2022-09-22T05:11:54.440Z,9.30
2022-09-22T05:14:26.513Z,10.90
2022-09-22T05:16:54.661Z,12.00
2022-09-22T05:19:22.660Z,13.20
2022-09-22T05:21:51.018Z,12.00
2022-09-22T05:24:18.897Z,14.30
2022-09-22T05:26:47.163Z,15.50
2022-09-22T05:29:16.050Z,24.10
2022-09-22T05:31:45.529Z,22.60
2022-09-22T05:34:13.387Z,13.70
2022-09-22T05:36:41.613Z,12.80
2022-09-22T05:39:09.598Z,10.50
2022-09-22T05:41:37.486Z,10.70
2022-09-22T05:44:05.339Z,9.60
2022-09-22T05:46:33.422Z,8.80
2022-09-22T05:49:01.272Z,9.70
2022-09-22T05:51:29.127Z,8.80
2022-09-22T05:53:57.009Z,7.80
2022-09-22T05:56:24.853Z,6.80
2022-09-22T05:58:52.636Z,6.00
2022-09-22T06:01:20.535Z,7.30
2022-09-22T06:03:48.330Z,7.90
2022-09-22T06:06:16.228Z,8.90
2022-09-22T06:08:48.613Z,8.30
2022-09-22T06:11:17.073Z,6.70
2022-09-22T06:13:45.121Z,6.20
2022-09-22T06:16:13.322Z,7.70
2022-09-22T06:18:41.514Z,6.30
2022-09-22T06:21:09.784Z,6.40
2022-09-22T06:23:42.587Z,5.80
2022-09-22T06:26:11.705Z,7.20
2022-09-22T06:28:39.568Z,5.60
2022-09-22T06:31:07.483Z,5.70
2022-09-22T06:33:35.967Z,5.80
2022-09-22T06:36:08.127Z,5.10
2022-09-22T06:38:36.095Z,4.90
2022-09-22T06:41:06.881Z,6.30
2022-09-22T06:43:38.015Z,6.00
2022-09-22T06:46:06.148Z,5.20
2022-09-22T06:48:34.746Z,6.10
2022-09-22T06:51:02.568Z,5.10
2022-09-22T06:53:31.266Z,5.30
2022-09-22T06:56:00.518Z,5.10
2022-09-22T06:58:29.237Z,4.40
2022-09-22T07:01:08.932Z,4.30
2022-09-22T07:03:41.813Z,4.00
2022-09-22T07:06:11.114Z,4.50
2022-09-22T07:08:39.674Z,4.00
2022-09-22T07:11:09.508Z,3.80
2022-09-22T07:13:41.256Z,4.90
2022-09-22T07:16:17.911Z,3.40
2022-09-22T07:18:51.552Z,5.00
2022-09-22T07:21:25.773Z,4.50
2022-09-22T07:23:55.639Z,4.20
2022-09-22T07:26:30.878Z,4.60
2022-09-22T07:29:00.994Z,4.00
2022-09-22T07:31:32.288Z,3.80
2022-09-22T07:34:00.904Z,3.50
2022-09-22T07:36:31.461Z,3.20
2022-09-22T07:39:07.754Z,4.00
2022-09-22T07:44:33.756Z,3.90
2022-09-22T07:47:03.684Z,3.30
2022-09-22T07:49:32.394Z,3.50
2022-09-22T07:52:00.346Z,3.00
2022-09-22T07:54:28.310Z,3.20
2022-09-22T07:56:59.060Z,2.60
2022-09-22T07:59:27.711Z,2.70
2022-09-22T08:01:55.963Z,2.50
2022-09-22T08:04:26.791Z,2.20
2022-09-22T08:06:56.242Z,3.30
2022-09-22T08:09:25.528Z,2.70
2022-09-22T08:11:55.212Z,2.40
2022-09-22T08:14:23.318Z,2.70
2022-09-22T08:16:53.749Z,3.10
2022-09-22T08:19:23.777Z,2.60
2022-09-22T08:21:54.319Z,2.20
2022-09-22T08:24:23.828Z,2.20
2022-09-22T08:26:56.095Z,2.00
2022-09-22T08:29:25.340Z,2.80
2022-09-22T08:31:54.406Z,2.30
2022-09-22T08:34:23.239Z,2.40
2022-09-22T08:36:51.905Z,2.50
2022-09-22T08:39:19.778Z,2.20
2022-09-22T08:42:18.434Z,2.40
2022-09-22T08:45:03.103Z,1.90
2022-09-22T08:48:12.670Z,2.50
2022-09-22T08:51:07.856Z,2.40
2022-09-22T08:53:43.595Z,2.50
2022-09-22T08:56:22.257Z,2.20
2022-09-22T08:59:23.867Z,1.90
2022-09-22T09:02:29.047Z,1.70
2022-09-22T09:05:15.413Z,1.60
2022-09-22T09:08:00.409Z,1.30
2022-09-22T09:10:43.108Z,1.10
2022-09-22T09:13:41.186Z,1.10
2022-09-22T09:16:38.168Z,1.20
2022-09-22T09:19:35.090Z,0.90
2022-09-22T09:22:12.672Z,1.00
2022-09-22T09:27:42.536Z,1.00
2022-09-22T09:30:16.173Z,1.10
2022-09-22T09:32:55.913Z,1.20
2022-09-22T09:35:44.337Z,0.90
2022-09-22T09:38:16.876Z,1.10
2022-09-22T09:40:54.397Z,1.10
2022-09-22T09:43:25.838Z,0.90
2022-09-22T09:46:15.033Z,1.80
2022-09-22T09:49:02.839Z,1.20
2022-09-22T09:51:39.912Z,1.00
2022-09-22T09:54:18.834Z,1.30
2022-09-22T09:57:09.677Z,0.80
2022-09-22T09:59:58.856Z,1.10
2022-09-22T10:02:38.863Z,1.00
2022-09-22T10:05:22.501Z,0.90
2022-09-22T10:07:58.256Z,0.90
2022-09-22T10:10:28.809Z,5.90
2022-09-22T10:13:05.612Z,1.30
2022-09-22T10:15:36.454Z,0.80
2022-09-22T10:18:24.303Z,1.00
2022-09-22T10:21:19.158Z,0.80
2022-09-22T10:23:54.903Z,0.90
2022-09-22T10:26:27.108Z,0.80
2022-09-22T10:29:20.023Z,1.00
2022-09-22T10:32:15.733Z,1.30
2022-09-22T10:34:50.862Z,0.90
2022-09-22T10:37:28.161Z,0.70
2022-09-22T10:40:02.001Z,0.80
2022-09-22T10:42:40.986Z,0.70
2022-09-22T10:45:19.300Z,0.80
2022-09-22T10:47:51.458Z,0.80
2022-09-22T10:50:41.460Z,0.90
2022-09-22T10:53:35.021Z,1.30
2022-09-22T10:56:13.876Z,0.90
2022-09-22T10:59:20.611Z,1.00
2022-09-22T11:02:25.774Z,0.70
2022-09-22T11:05:50.981Z,0.70
2022-09-22T11:08:39.768Z,0.80
2022-09-22T11:11:37.256Z,1.00
2022-09-22T11:14:18.877Z,0.90
2022-09-22T11:17:05.321Z,2.60
2022-09-22T11:19:58.785Z,1.00
2022-09-22T11:22:26.588Z,1.30
2022-09-22T11:25:25.134Z,11.00
2022-09-22T11:28:04.885Z,0.70
2022-09-22T11:30:45.789Z,0.80
2022-09-22T11:33:32.434Z,0.70
2022-09-22T11:36:18.840Z,0.90
2022-09-22T11:39:00.595Z,0.90
2022-09-22T11:41:47.658Z,0.60
2022-09-22T11:44:30.886Z,0.80
2022-09-22T11:47:20.763Z,0.90
2022-09-22T11:50:14.250Z,0.70
2022-09-22T11:53:06.502Z,0.70
2022-09-22T11:55:41.806Z,12.00
2022-09-22T11:58:21.564Z,1.30
2022-09-22T12:01:13.721Z,0.90
2022-09-22T12:03:50.602Z,0.50
2022-09-22T12:06:21.871Z,0.80
2022-09-22T12:09:03.647Z,0.70
2022-09-22T12:11:36.898Z,0.80
2022-09-22T12:14:06.850Z,0.70
2022-09-22T12:16:42.274Z,0.50
2022-09-22T12:19:32.388Z,1.20
2022-09-22T12:22:21.721Z,0.90
2022-09-22T12:24:49.725Z,0.80
2022-09-22T12:27:17.429Z,1.00
2022-09-22T12:29:46.354Z,0.80
2022-09-22T12:32:36.203Z,0.80
2022-09-22T12:35:05.695Z,1.10
2022-09-22T12:37:38.316Z,0.90
2022-09-22T12:40:37.357Z,0.90
2022-09-22T12:43:06.077Z,1.00
2022-09-22T12:45:37.632Z,0.70
2022-09-22T12:48:15.065Z,1.00
2022-09-22T12:50:45.161Z,1.20
2022-09-22T12:53:22.090Z,2.40
2022-09-22T12:55:57.229Z,16.70
2022-09-22T12:58:28.716Z,2.00
2022-09-22T13:01:28.522Z,1.40
2022-09-22T13:04:12.018Z,0.90
2022-09-22T13:06:39.799Z,1.70
2022-09-22T13:09:18.846Z,1.20
2022-09-22T13:12:23.070Z,1.10
2022-09-22T13:15:06.245Z,1.40
2022-09-22T13:17:41.570Z,0.80
2022-09-22T13:20:22.166Z,1.20
2022-09-22T13:22:52.150Z,0.90
2022-09-22T13:25:24.273Z,1.70
2022-09-22T13:28:13.071Z,0.80
2022-09-22T13:30:43.228Z,1.30
2022-09-22T13:33:25.811Z,0.70
2022-09-22T13:36:06.510Z,1.90
2022-09-22T13:38:38.535Z,1.60
2022-09-22T13:41:19.061Z,1.90
2022-09-22T13:43:56.711Z,0.80
2022-09-22T13:46:47.039Z,0.80
2022-09-22T13:49:35.984Z,1.40
2022-09-22T13:52:12.758Z,0.80
2022-09-22T13:54:41.316Z,0.50
2022-09-22T13:57:20.578Z,1.00
2022-09-22T13:59:48.783Z,1.30
2022-09-22T14:02:22.963Z,1.00
2022-09-22T14:04:56.636Z,4.50
2022-09-22T14:07:29.964Z,1.20
2022-09-22T14:10:01.435Z,0.70
2022-09-22T14:12:30.425Z,0.50
2022-09-22T14:15:36.962Z,0.70
2022-09-22T14:18:16.821Z,0.60
2022-09-22T14:20:45.796Z,0.60
2022-09-22T14:23:23.701Z,0.60
2022-09-22T14:25:51.754Z,0.70
2022-09-22T14:28:25.076Z,0.90
2022-09-22T14:30:53.994Z,1.00
2022-09-22T14:33:29.749Z,0.80
2022-09-22T14:36:05.066Z,1.20
2022-09-22T14:38:48.153Z,1.00
2022-09-22T14:41:36.593Z,1.00
2022-09-22T14:44:52.467Z,1.10
2022-09-22T14:47:26.533Z,1.20
2022-09-22T14:50:16.928Z,1.50
2022-09-22T14:52:54.326Z,1.30
2022-09-22T14:55:34.591Z,3.20
2022-09-22T14:58:22.853Z,3.00
2022-09-22T15:01:18.307Z,5.40
2022-09-22T15:03:55.705Z,5.90
2022-09-22T15:06:23.646Z,4.60
2022-09-22T15:08:52.654Z,4.10
2022-09-22T15:11:20.543Z,1.80
2022-09-22T15:13:51.526Z,3.60
2022-09-22T15:16:36.003Z,3.30
2022-09-22T15:19:05.362Z,2.30
2022-09-22T15:21:37.961Z,3.90
2022-09-22T15:24:06.174Z,5.10
2022-09-22T15:26:34.334Z,4.00
2022-09-22T15:29:02.999Z,1.90
2022-09-22T15:31:32.552Z,4.80
2022-09-22T15:34:03.137Z,4.90
2022-09-22T15:36:33.298Z,3.30
2022-09-22T15:39:22.730Z,2.20
2022-09-22T15:41:52.444Z,1.80
2022-09-22T15:44:20.748Z,1.90
2022-09-22T15:46:54.514Z,2.00
2022-09-22T15:49:26.371Z,1.20
2022-09-22T15:51:56.108Z,1.50
2022-09-22T15:54:26.230Z,1.30
2022-09-22T15:56:55.901Z,1.50
2022-09-22T15:59:28.406Z,1.40
2022-09-22T16:01:59.347Z,1.40
2022-09-22T16:04:30.593Z,1.20
2022-09-22T16:07:02.766Z,3.40
2022-09-22T16:09:31.259Z,1.90
2022-09-22T16:11:59.809Z,1.80
2022-09-22T16:14:27.998Z,3.30
2022-09-22T16:16:55.836Z,1.70
2022-09-22T16:19:23.682Z,1.50
2022-09-22T16:21:56.415Z,1.90
2022-09-22T16:24:28.054Z,4.20
2022-09-22T16:26:56.324Z,6.10
2022-09-22T16:29:25.334Z,4.50
2022-09-22T16:31:53.978Z,4.60
2022-09-22T16:34:22.078Z,4.40
2022-09-22T16:36:49.976Z,4.20
2022-09-22T16:39:17.802Z,8.40
2022-09-22T16:41:46.596Z,5.50
2022-09-22T16:44:16.112Z,9.20
2022-09-22T16:46:44.047Z,3.10
2022-09-22T16:49:16.301Z,3.80
2022-09-22T16:51:48.873Z,4.30
2022-09-22T16:54:19.579Z,4.70
2022-09-22T16:56:50.009Z,3.40
2022-09-22T16:59:19.753Z,6.30
2022-09-22T17:01:49.063Z,5.60
2022-09-22T17:04:19.323Z,2.90
2022-09-22T17:06:48.234Z,2.40
2022-09-22T17:09:16.898Z,1.70
2022-09-22T17:11:48.815Z,2.50
2022-09-22T17:14:22.105Z,2.30
2022-09-22T17:16:52.500Z,1.90
2022-09-22T17:19:23.581Z,2.10
2022-09-22T17:21:54.094Z,4.60
2022-09-22T17:24:23.682Z,6.70
2022-09-22T17:26:54.632Z,50.40
2022-09-22T17:29:25.483Z,119.90
2022-09-22T17:31:57.400Z,64.40
2022-09-22T17:34:28.892Z,51.00
2022-09-22T17:36:58.087Z,33.40
2022-09-22T17:39:28.387Z,38.50
2022-09-22T17:41:56.750Z,36.00
2022-09-22T17:44:28.677Z,30.90
2022-09-22T17:47:15.462Z,98.90
2022-09-22T17:50:02.157Z,59.10
2022-09-22T17:52:49.024Z,23.70
2022-09-22T17:55:21.746Z,18.80
2022-09-22T17:57:51.840Z,13.70
2022-09-22T18:00:22.308Z,11.00
2022-09-22T18:02:52.754Z,10.00
2022-09-22T18:05:25.621Z,10.00
2022-09-22T18:07:57.915Z,12.00
2022-09-22T18:10:31.095Z,45.70
2022-09-22T18:13:00.038Z,26.60
2022-09-22T18:15:29.386Z,15.00
2022-09-22T18:17:58.298Z,13.30
2022-09-22T18:20:27.784Z,11.10
2022-09-22T18:22:57.963Z,11.40
2022-09-22T18:25:25.933Z,9.90
2022-09-22T18:27:54.591Z,102.50
2022-09-22T18:30:23.193Z,65.10
2022-09-22T18:32:51.900Z,63.10
2022-09-22T18:35:20.275Z,47.40
2022-09-22T18:37:48.135Z,43.70
2022-09-22T18:40:17.276Z,20.90
2022-09-22T18:42:45.385Z,17.10
2022-09-22T18:45:14.399Z,22.20
2022-09-22T18:47:43.812Z,17.90
2022-09-22T18:50:12.772Z,21.60
2022-09-22T18:52:43.344Z,28.50
2022-09-22T18:55:14.198Z,34.90
2022-09-22T18:57:43.163Z,40.30
2022-09-22T19:00:11.713Z,41.70
2022-09-22T19:02:40.000Z,43.50
2022-09-22T19:05:08.594Z,42.20
2022-09-22T19:07:43.886Z,43.30
2022-09-22T19:10:21.918Z,72.30
2022-09-22T19:12:50.840Z,73.70
2022-09-22T19:15:19.819Z,74.20
2022-09-22T19:17:49.842Z,50.20
2022-09-22T19:20:23.432Z,44.30
2022-09-22T19:22:52.841Z,44.40
2022-09-22T19:25:22.461Z,45.30
2022-09-22T19:27:53.013Z,44.50
2022-09-22T19:30:24.792Z,44.20
2022-09-22T19:32:55.653Z,40.90
2022-09-22T19:35:24.022Z,53.10
2022-09-22T19:37:52.438Z,38.80
2022-09-22T19:40:24.429Z,39.10
2022-09-22T19:42:54.085Z,39.80
2022-09-22T19:45:24.089Z,47.50
2022-09-22T19:47:54.053Z,45.60
2022-09-22T19:50:21.982Z,51.70
2022-09-22T19:52:50.236Z,51.80
2022-09-22T19:55:21.009Z,50.80
2022-09-22T19:57:52.447Z,53.00
2022-09-22T20:00:26.769Z,57.30
2022-09-22T20:02:59.218Z,41.20
2022-09-22T20:05:34.755Z,54.10
2022-09-22T20:08:15.705Z,58.60
2022-09-22T20:10:45.603Z,63.30
2022-09-22T20:13:33.038Z,63.60
2022-09-22T20:16:01.980Z,54.60
2022-09-22T20:18:29.996Z,55.50
2022-09-22T20:21:01.461Z,42.40
2022-09-22T20:23:29.469Z,38.80
2022-09-22T20:25:57.348Z,36.00
2022-09-22T20:28:25.305Z,35.30
2022-09-22T20:30:53.347Z,36.40
2022-09-22T20:33:23.624Z,34.70
2022-09-22T20:35:57.646Z,36.10
2022-09-22T20:38:25.954Z,38.60
2022-09-22T20:40:53.879Z,39.90
2022-09-22T20:43:21.827Z,39.90
2022-09-22T20:45:49.781Z,38.70
2022-09-22T20:48:19.205Z,35.60
2022-09-22T20:50:57.605Z,37.20
2022-09-22T20:53:26.794Z,37.20
2022-09-22T20:56:06.804Z,39.50
2022-09-22T20:58:40.712Z,41.80
2022-09-22T21:01:10.603Z,46.40
2022-09-22T21:03:39.770Z,50.50
2022-09-22T21:06:10.088Z,69.50
2022-09-22T21:08:59.404Z,456.00
2022-09-22T21:11:28.450Z,252.70
2022-09-22T21:14:05.747Z,208.60
2022-09-22T21:16:38.424Z,72.70
2022-09-22T21:19:07.674Z,49.30
2022-09-22T21:21:37.864Z,45.90
2022-09-22T21:24:08.209Z,52.10
2022-09-22T21:26:36.207Z,57.50
2022-09-22T21:29:05.033Z,52.30
2022-09-22T21:31:34.547Z,42.90
2022-09-22T21:34:02.481Z,40.60
2022-09-22T21:36:30.511Z,40.10
2022-09-22T21:39:00.152Z,38.60
2022-09-22T21:41:30.414Z,40.60
2022-09-22T21:44:00.139Z,39.80
2022-09-22T21:46:30.016Z,41.50
2022-09-22T21:49:02.056Z,39.80
2022-09-22T21:51:36.352Z,39.00
2022-09-22T21:54:05.659Z,39.10
2022-09-22T21:56:34.747Z,37.90
2022-09-22T21:59:04.595Z,36.70
2022-09-22T22:01:35.393Z,36.50
2022-09-22T22:04:08.207Z,40.30
2022-09-22T22:06:40.301Z,36.60
2022-09-22T22:09:22.885Z,34.70
2022-09-22T22:11:54.876Z,35.50
2022-09-22T22:14:24.892Z,34.60
2022-09-22T22:16:54.949Z,34.20
2022-09-22T22:19:27.060Z,36.10
2022-09-22T22:21:55.577Z,38.50
2022-09-22T22:24:42.293Z,41.90
2022-09-22T22:27:10.834Z,39.50
2022-09-22T22:29:41.151Z,38.00
2022-09-22T22:32:10.737Z,39.50
2022-09-22T22:34:38.865Z,39.10
2022-09-22T22:37:09.642Z,42.00
2022-09-22T22:39:38.791Z,42.20
2022-09-22T22:42:07.083Z,41.50
2022-09-22T22:44:35.374Z,37.50
2022-09-22T22:47:05.356Z,37.10
2022-09-22T22:49:34.058Z,36.60
2022-09-22T22:52:02.194Z,36.70
2022-09-22T22:54:30.041Z,39.00
2022-09-22T22:56:57.910Z,41.20
2022-09-22T22:59:25.725Z,36.80
2022-09-22T23:01:54.214Z,31.40
2022-09-22T23:04:22.286Z,31.30
2022-09-22T23:06:50.126Z,34.50
2022-09-22T23:09:18.065Z,36.30
2022-09-22T23:11:46.584Z,41.40
2022-09-22T23:14:16.336Z,44.10
2022-09-22T23:16:46.882Z,42.80
2022-09-22T23:19:17.310Z,47.70
2022-09-22T23:21:46.700Z,44.30
2022-09-22T23:24:16.829Z,48.30
2022-09-22T23:26:46.407Z,46.10
2022-09-22T23:29:14.688Z,47.50
2022-09-22T23:31:43.085Z,44.70
2022-09-22T23:34:11.098Z,40.30
2022-09-22T23:36:39.748Z,37.30
2022-09-22T23:39:08.357Z,39.60
2022-09-22T23:41:37.286Z,37.60
2022-09-22T23:44:07.052Z,38.90
2022-09-22T23:46:37.632Z,35.80
2022-09-22T23:49:06.212Z,32.70
2022-09-22T23:51:33.982Z,33.60
2022-09-22T23:54:01.856Z,33.10
2022-09-22T23:56:29.860Z,32.30
2022-09-22T23:58:57.961Z,31.20
